Time;durP1;ratioP1;P1;durP2;ratioP2;P2;SDS_P1;SDS_P2;PMS_P1;PMS_P2;Temp;Humidity;BMP_temperature;BMP_pressure;BME280_temperature;BME280_humidity;BME280_pressure;Samples;Min_cycle;Max_cycle;Signal;HPM_P1;HPM_P2
2021/10/03 00:02:19;;;;;;;5.25;3.55;;;;;;;17.62;90.71;99472.63;6419450;23;20005;-80
2021/10/03 00:04:53;;;;;;;10.02;6.03;;;;;;;17.62;90.59;99476.09;6418779;23;20065;-79
2021/10/03 00:07:23;;;;;;;6.78;3.42;;;;;;;17.58;91.15;99466.75;6420712;23;20001;-79
2021/10/03 00:09:53;;;;;;;5.32;3.42;;;;;;;17.59;91.05;99475.50;6407853;23;20008;-79
2021/10/03 00:12:24;;;;;;;6.10;3.42;;;;;;;17.72;89.86;99471.75;6420155;23;20013;-79
2021/10/03 00:14:54;;;;;;;5.13;3.35;;;;;;;17.76;90.04;99477.59;6419908;23;20007;-80
2021/10/03 00:17:25;;;;;;;5.75;3.30;;;;;;;17.70;90.06;99472.84;6420223;23;20016;-79
2021/10/03 00:19:55;;;;;;;5.28;3.38;;;;;;;17.71;90.00;99471.88;6413582;23;20004;-80
2021/10/03 00:22:26;;;;;;;4.93;3.38;;;;;;;17.69;90.24;99471.16;6419561;23;20007;-80
2021/10/03 00:24:57;;;;;;;4.38;3.13;;;;;;;17.79;89.36;99461.53;6421413;23;20016;-79
2021/10/03 00:27:28;;;;;;;6.80;3.28;;;;;;;17.79;89.09;99456.25;6420836;23;20033;-80
2021/10/03 00:29:58;;;;;;;5.07;2.90;;;;;;;17.73;89.51;99446.16;6419289;23;20008;-79
2021/10/03 00:32:28;;;;;;;6.32;3.10;;;;;;;17.66;89.84;99448.47;6419803;23;20088;-79
2021/10/03 00:34:59;;;;;;;4.60;2.97;;;;;;;17.68;89.78;99443.06;6419312;23;20036;-80
2021/10/03 00:37:29;;;;;;;8.20;3.10;;;;;;;17.68;89.58;99443.06;6420891;23;20026;-79
2021/10/03 00:39:59;;;;;;;4.33;2.63;;;;;;;17.79;88.48;99440.38;6419030;23;20032;-79
2021/10/03 00:42:30;;;;;;;4.75;2.60;;;;;;;17.75;88.95;99433.66;6418689;23;20284;-80
2021/10/03 00:45:00;;;;;;;3.85;2.53;;;;;;;17.78;88.78;99436.88;6407462;23;20079;-79
2021/10/03 00:47:30;;;;;;;5.57;2.97;;;;;;;17.71;88.80;99419.00;6418075;23;20001;-80
2021/10/03 00:50:01;;;;;;;4.38;2.95;;;;;;;17.71;88.97;99430.44;6417801;23;20075;-80
2021/10/03 00:52:31;;;;;;;4.25;2.65;;;;;;;17.67;88.86;99430.81;6418803;23;20074;-80
2021/10/03 00:55:02;;;;;;;4.50;2.60;;;;;;;17.74;88.17;99426.69;6418786;23;20005;-80
2021/10/03 00:57:33;;;;;;;4.03;2.60;;;;;;;17.84;87.34;99423.16;6418598;23;19997;-80
2021/10/03 01:00:05;;;;;;;4.72;2.67;;;;;;;17.91;86.87;99418.19;6418769;23;20004;-79
2021/10/03 01:02:36;;;;;;;5.05;3.47;;;;;;;18.03;86.11;99419.81;6418814;23;20301;-77
2021/10/03 01:05:08;;;;;;;5.43;2.88;;;;;;;17.98;86.23;99411.44;6417797;23;20005;-80
2021/10/03 01:07:39;;;;;;;4.82;2.40;;;;;;;18.14;84.93;99409.19;6419463;23;20008;-80
2021/10/03 01:10:13;;;;;;;4.32;2.08;;;;;;;18.28;83.81;99411.50;6407891;23;20008;-80
2021/10/03 01:12:43;;;;;;;4.07;2.67;;;;;;;18.21;84.56;99410.31;6406854;23;20035;-80
2021/10/03 01:15:14;;;;;;;6.35;3.13;;;;;;;18.16;84.91;99407.25;6418671;23;20012;-79
2021/10/03 01:17:45;;;;;;;10.77;2.72;;;;;;;18.29;83.46;99414.03;6407639;23;20016;-79
2021/10/03 01:20:15;;;;;;;3.63;2.58;;;;;;;18.28;83.72;99403.56;6419079;23;20425;-79
2021/10/03 01:22:46;;;;;;;4.15;2.65;;;;;;;18.29;83.25;99414.03;6406790;23;19997;-79
2021/10/03 01:25:17;;;;;;;5.97;2.58;;;;;;;18.27;83.42;99399.19;6418739;23;20461;-78
2021/10/03 01:27:49;;;;;;;3.90;2.33;;;;;;;18.19;84.05;99396.38;6417105;23;20005;-79
2021/10/03 01:30:19;;;;;;;3.85;2.55;;;;;;;18.14;84.40;99398.59;6416405;23;20063;-79
2021/10/03 01:32:50;;;;;;;4.97;2.58;;;;;;;18.30;82.83;99388.38;6419191;23;19997;-79
2021/10/03 01:35:20;;;;;;;3.78;2.50;;;;;;;18.22;83.60;99393.47;6418772;23;20008;-80
2021/10/03 01:37:51;;;;;;;3.20;2.17;;;;;;;18.21;83.33;99395.28;6417982;23;20529;-79
2021/10/03 01:40:22;;;;;;;4.15;2.47;;;;;;;18.18;83.33;99384.97;6418008;23;20059;-80
2021/10/03 01:42:53;;;;;;;5.25;2.55;;;;;;;18.18;83.14;99389.44;6406323;23;20004;-79
2021/10/03 01:45:23;;;;;;;3.80;2.30;;;;;;;18.16;83.36;99380.78;6418126;23;20088;-78
2021/10/03 01:48:08;;;;;;;4.05;2.47;;;;;;;18.14;83.67;99377.44;6418135;23;20067;-80
2021/10/03 01:50:52;;;;;;;5.45;2.40;;;;;;;18.18;82.79;99376.22;6418788;23;20324;-79
2021/10/03 01:53:29;;;;;;;3.20;2.35;;;;;;;18.17;83.37;99379.81;6405621;23;20005;-79
2021/10/03 01:56:00;;;;;;;5.65;2.40;;;;;;;18.19;82.61;99364.66;6417332;23;20025;-80
2021/10/03 01:58:34;;;;;;;3.15;2.20;;;;;;;18.15;83.23;99373.81;6405228;23;19997;-79
2021/10/03 02:01:08;;;;;;;5.53;2.28;;;;;;;18.15;83.19;99371.19;6405306;23;20008;-79
2021/10/03 02:03:39;;;;;;;6.15;3.05;;;;;;;18.14;82.98;99351.00;6406314;23;20001;-80
2021/10/03 02:06:09;;;;;;;2.78;2.00;;;;;;;18.08;83.24;99352.34;6418030;23;20031;-80
2021/10/03 02:08:40;;;;;;;3.90;2.20;;;;;;;18.08;83.68;99343.56;6416405;23;20009;-80
2021/10/03 02:11:10;;;;;;;4.35;2.20;;;;;;;17.97;83.97;99355.06;6418220;23;20057;-80
2021/10/03 02:13:40;;;;;;;3.70;1.92;;;;;;;17.94;84.33;99350.03;6417420;23;20001;-80
2021/10/03 02:16:11;;;;;;;3.50;2.20;;;;;;;17.95;84.05;99340.28;6417577;23;20108;-79
2021/10/03 02:18:45;;;;;;;3.78;2.40;;;;;;;17.95;83.82;99345.56;6417203;23;20492;-79
2021/10/03 02:21:15;;;;;;;3.30;2.17;;;;;;;17.96;84.28;99347.25;6418858;23;19997;-80
2021/10/03 02:23:46;;;;;;;2.72;1.73;;;;;;;17.98;83.72;99334.75;6419561;23;20001;-79
2021/10/03 02:26:16;;;;;;;3.03;2.00;;;;;;;17.97;83.66;99346.31;6419384;23;20005;-78
2021/10/03 02:28:47;;;;;;;3.28;2.20;;;;;;;18.01;83.25;99334.50;6417916;23;20028;-80
2021/10/03 02:31:17;;;;;;;3.30;2.00;;;;;;;17.98;83.67;99338.22;6408737;23;20001;-78
2021/10/03 02:33:49;;;;;;;2.75;1.80;;;;;;;17.92;83.90;99340.56;6407452;23;20025;-80
2021/10/03 02:36:22;;;;;;;4.40;2.15;;;;;;;17.94;83.82;99331.53;6419941;23;20016;-80
2021/10/03 02:38:54;;;;;;;3.67;2.17;;;;;;;17.92;83.79;99341.41;6418918;23;20000;-80
2021/10/03 02:41:25;;;;;;;3.65;2.00;;;;;;;17.95;84.03;99338.50;6406794;23;19997;-80
2021/10/03 02:43:58;;;;;;;4.38;2.00;;;;;;;17.95;83.74;99335.00;6418334;23;20002;-79
2021/10/03 02:46:29;;;;;;;5.22;2.15;;;;;;;17.98;83.84;99340.06;6419174;23;20086;-79
2021/10/03 02:48:59;;;;;;;3.70;2.33;;;;;;;17.95;84.30;99332.34;6419125;23;20205;-80
2021/10/03 02:51:30;;;;;;;4.03;1.90;;;;;;;17.85;84.90;99320.91;6419674;23;20072;-79
2021/10/03 02:54:00;;;;;;;4.70;2.20;;;;;;;17.85;85.00;99320.91;6406853;23;20023;-80
2021/10/03 02:56:31;;;;;;;2.97;1.85;;;;;;;17.89;85.01;99315.25;6419705;23;20008;-79
2021/10/03 02:59:02;;;;;;;4.47;1.92;;;;;;;17.94;84.68;99307.75;6418264;23;20001;-79
2021/10/03 03:01:32;;;;;;;3.15;1.88;;;;;;;17.94;84.30;99307.75;6406503;23;20080;-80
2021/10/03 03:04:03;;;;;;;3.95;2.47;;;;;;;17.85;85.05;99312.97;6417847;23;20001;-79
2021/10/03 03:06:33;;;;;;;4.07;2.20;;;;;;;18.10;82.74;99297.53;6418233;23;20313;-79
2021/10/03 03:09:03;;;;;;;3.88;1.90;;;;;;;18.07;83.44;99297.78;6419197;23;20031;-79
2021/10/03 03:11:33;;;;;;;3.13;1.97;;;;;;;18.05;83.14;99301.53;6420218;23;20189;-79
2021/10/03 03:14:04;;;;;;;3.03;1.90;;;;;;;18.00;83.71;99290.53;6419717;23;20291;-80
2021/10/03 03:16:48;;;;;;;4.05;2.13;;;;;;;18.09;83.80;99295.84;6419662;23;20021;-79
2021/10/03 03:19:19;;;;;;;3.78;1.90;;;;;;;18.23;82.30;99282.28;6419696;23;19997;-79
2021/10/03 03:21:49;;;;;;;3.30;2.15;;;;;;;18.03;83.61;99290.25;6419240;23;20063;-79
2021/10/03 03:24:20;;;;;;;3.25;2.08;;;;;;;17.98;83.71;99292.47;6405973;23;20024;-80
2021/10/03 03:26:50;;;;;;;4.35;2.53;;;;;;;17.97;84.77;99294.25;6406256;23;20017;-80
2021/10/03 03:29:20;;;;;;;3.10;2.00;;;;;;;17.94;84.06;99291.03;6396569;23;20013;-78
2021/10/03 03:31:50;;;;;;;3.10;1.87;;;;;;;17.89;84.56;99294.09;6394550;23;20244;-78
2021/10/03 03:34:22;;;;;;;2.87;1.93;;;;;;;17.89;84.31;99293.22;6407210;23;20243;-78
2021/10/03 03:36:52;;;;;;;3.10;1.90;;;;;;;17.85;84.51;99297.13;6397073;23;20561;-77
2021/10/03 03:39:22;;;;;;;3.85;1.88;;;;;;;17.89;84.43;99293.22;6408194;23;20009;-77
2021/10/03 03:41:53;;;;;;;2.38;1.67;;;;;;;17.97;83.93;99290.78;6408617;23;20001;-77
2021/10/03 03:44:23;;;;;;;3.35;2.00;;;;;;;18.09;83.44;99295.84;6408257;23;20068;-77
2021/10/03 03:46:54;;;;;;;3.55;1.90;;;;;;;18.03;83.86;99311.41;6409274;23;20032;-78
2021/10/03 03:49:24;;;;;;;3.70;1.80;;;;;;;18.00;84.35;99309.03;6407765;23;20060;-80
2021/10/03 03:51:55;;;;;;;3.20;2.00;;;;;;;17.95;84.83;99309.41;6408781;23;20005;-78
2021/10/03 03:54:25;;;;;;;3.83;1.95;;;;;;;17.86;85.63;99320.75;6408036;23;20425;-78
2021/10/03 03:56:56;;;;;;;3.13;1.98;;;;;;;17.86;85.35;99319.94;6408404;23;20113;-79
2021/10/03 03:59:26;;;;;;;3.40;2.10;;;;;;;17.95;84.95;99313.84;6408576;23;20070;-78
2021/10/03 04:01:57;;;;;;;4.10;2.20;;;;;;;17.92;84.96;99319.41;6408425;23;20001;-77
2021/10/03 04:04:27;;;;;;;2.80;1.73;;;;;;;17.88;85.23;99316.19;6408106;23;20036;-78
2021/10/03 04:06:57;;;;;;;2.47;1.73;;;;;;;18.09;84.45;99324.09;6407237;23;20240;-78
2021/10/03 04:09:28;;;;;;;4.13;2.28;;;;;;;18.28;83.46;99322.41;6406867;23;20005;-78
2021/10/03 04:11:58;;;;;;;3.67;1.95;;;;;;;18.34;83.46;99326.34;6407690;23;19997;-78
2021/10/03 04:14:29;;;;;;;4.40;2.20;;;;;;;18.29;83.96;99320.59;6407290;23;20001;-78
2021/10/03 04:16:59;;;;;;;3.03;1.93;;;;;;;18.30;84.31;99319.63;6395476;23;20150;-78
2021/10/03 04:19:30;;;;;;;3.10;1.90;;;;;;;18.23;84.69;99324.59;6405809;23;20243;-78
2021/10/03 04:22:00;;;;;;;3.80;2.10;;;;;;;18.39;83.31;99324.13;6407169;23;20032;-78
2021/10/03 04:24:30;;;;;;;3.07;1.83;;;;;;;18.53;82.65;99326.41;6414038;23;20509;-79
2021/10/03 04:27:01;;;;;;;4.05;1.80;;;;;;;18.56;82.94;99324.34;6416024;23;20228;-82
2021/10/03 04:32:59;;;;;;;2.80;2.00;;;;;;;18.66;82.06;99324.34;6329793;23;20018;-81
2021/10/03 04:35:29;;;;;;;3.30;1.80;;;;;;;18.71;81.56;99327.44;6406639;23;19997;-78
2021/10/03 04:38:00;;;;;;;2.65;1.70;;;;;;;18.74;81.47;99330.66;6414722;23;20005;-79
2021/10/03 04:40:30;;;;;;;3.83;2.00;;;;;;;18.75;82.25;99332.31;6396334;23;20070;-78
2021/10/03 04:43:01;;;;;;;3.50;1.90;;;;;;;19.00;80.66;99311.47;6413222;23;20015;-77
2021/10/03 04:45:31;;;;;;;3.10;1.88;;;;;;;19.12;80.03;99320.09;6417445;23;20080;-79
2021/10/03 04:48:02;;;;;;;4.28;2.33;;;;;;;19.17;80.34;99323.19;6418660;23;20027;-79
2021/10/03 04:50:33;;;;;;;3.67;1.90;;;;;;;19.31;78.90;99307.72;6407711;23;20001;-78
2021/10/03 04:53:03;;;;;;;3.95;1.85;;;;;;;19.38;78.55;99310.66;6417532;23;20536;-78
2021/10/03 04:55:33;;;;;;;5.15;2.22;;;;;;;19.18;80.69;99311.63;6416155;23;20003;-77
2021/10/03 04:58:04;;;;;;;4.43;2.40;;;;;;;19.14;79.79;99310.22;6415897;23;20092;-77
2021/10/03 05:00:34;;;;;;;4.53;2.50;;;;;;;19.18;79.52;99312.47;6412651;23;20008;-81
2021/10/03 05:03:04;;;;;;;3.70;2.15;;;;;;;19.21;79.56;99308.69;6416220;23;20009;-80
2021/10/03 05:05:36;;;;;;;4.03;2.20;;;;;;;19.17;79.92;99317.91;6414941;23;20011;-79
2021/10/03 05:08:08;;;;;;;3.53;2.10;;;;;;;19.03;80.60;99321.78;6416148;23;20001;-80
2021/10/03 05:10:40;;;;;;;4.93;2.40;;;;;;;18.93;81.25;99320.91;6406780;23;20357;-79
2021/10/03 05:13:11;;;;;;;3.92;2.20;;;;;;;18.92;81.16;99329.84;6418686;23;20251;-79
2021/10/03 05:15:43;;;;;;;5.35;2.33;;;;;;;18.91;81.18;99330.00;6395322;23;20009;-78
2021/10/03 05:18:13;;;;;;;4.22;2.13;;;;;;;18.97;80.58;99322.31;6410746;23;20209;-77
2021/10/03 05:20:43;;;;;;;4.43;2.08;;;;;;;18.99;81.10;99322.19;6413821;23;20015;-78
2021/10/03 05:23:14;;;;;;;5.03;2.43;;;;;;;19.08;80.55;99303.66;6414261;23;20001;-76
2021/10/03 05:25:45;;;;;;;4.90;2.08;;;;;;;19.15;79.69;99317.19;6414947;23;20243;-78
2021/10/03 05:28:15;;;;;;;4.28;2.08;;;;;;;19.08;80.43;99316.88;6413688;23;20080;-78
2021/10/03 05:30:46;;;;;;;3.63;2.00;;;;;;;18.99;81.17;99311.59;6413771;23;20001;-77
2021/10/03 05:33:16;;;;;;;4.05;2.00;;;;;;;19.14;80.05;99310.22;6415031;23;20074;-77
2021/10/03 05:35:47;;;;;;;4.45;2.20;;;;;;;18.99;81.35;99311.59;6414045;23;20005;-77
2021/10/03 05:38:17;;;;;;;3.25;2.03;;;;;;;19.02;81.48;99314.81;6402002;23;20032;-78
2021/10/03 05:40:47;;;;;;;3.90;1.88;;;;;;;18.95;81.60;99316.31;6402174;23;20069;-78
2021/10/03 05:43:18;;;;;;;4.03;2.00;;;;;;;18.95;81.60;99312.84;6412840;23;20024;-77
2021/10/03 05:45:48;;;;;;;2.95;2.05;;;;;;;18.83;82.04;99320.06;6414144;23;20055;-77
2021/10/03 05:48:19;;;;;;;3.05;2.00;;;;;;;18.82;81.85;99321.06;6414207;23;20060;-77
2021/10/03 05:50:49;;;;;;;4.53;1.90;;;;;;;18.90;81.13;99320.38;6414907;23;20485;-78
2021/10/03 05:53:19;;;;;;;3.40;2.00;;;;;;;18.86;81.21;99325.09;6414865;23;20078;-79
2021/10/03 05:55:50;;;;;;;3.10;1.70;;;;;;;18.86;81.25;99314.50;6414560;23;20565;-78
2021/10/03 05:58:21;;;;;;;2.92;1.98;;;;;;;18.77;82.00;99320.59;6413429;23;20020;-77
2021/10/03 06:00:51;;;;;;;3.33;1.80;;;;;;;18.87;80.96;99317.97;6414789;23;20005;-78
2021/10/03 06:03:22;;;;;;;3.63;2.00;;;;;;;18.89;80.55;99316.03;6414339;23;20060;-79
2021/10/03 06:05:52;;;;;;;4.03;1.75;;;;;;;18.79;81.16;99310.72;6414467;23;20016;-77
2021/10/03 06:08:22;;;;;;;3.50;1.80;;;;;;;18.77;80.89;99303.91;6413796;23;20001;-78
2021/10/03 06:10:53;;;;;;;3.27;2.13;;;;;;;18.82;80.55;99307.81;6414137;23;20001;-76
2021/10/03 06:13:23;;;;;;;3.58;2.00;;;;;;;18.82;81.14;99314.91;6413044;23;20235;-78
2021/10/03 06:15:55;;;;;;;3.22;1.90;;;;;;;19.01;79.57;99307.84;6415542;23;20005;-78
2021/10/03 06:18:25;;;;;;;2.63;1.70;;;;;;;19.02;79.81;99306.00;6415654;23;20064;-78
2021/10/03 06:20:55;;;;;;;3.10;1.90;;;;;;;19.01;79.54;99302.53;6416512;23;20001;-75
2021/10/03 06:23:25;;;;;;;4.20;1.73;;;;;;;19.04;79.33;99307.56;6415058;23;20001;-77
2021/10/03 06:25:56;;;;;;;3.47;1.87;;;;;;;19.06;79.46;99304.75;6416177;23;20016;-79
2021/10/03 06:28:26;;;;;;;3.57;1.77;;;;;;;19.08;79.08;99306.28;6417504;23;20256;-80
2021/10/03 06:30:56;;;;;;;3.13;2.00;;;;;;;19.11;78.67;99302.53;6418766;23;20676;-78
2021/10/03 06:33:27;;;;;;;3.70;1.85;;;;;;;19.09;79.00;99309.78;6420246;23;19997;-79
2021/10/03 06:35:58;;;;;;;4.90;1.73;;;;;;;19.17;77.91;99305.50;6417071;23;20016;-79
2021/10/03 06:38:28;;;;;;;5.15;1.70;;;;;;;19.18;78.61;99304.53;6418355;23;20826;-78
2021/10/03 06:40:58;;;;;;;2.73;1.80;;;;;;;19.29;76.81;99299.06;6416588;23;20052;-78
2021/10/03 06:43:33;;;;;;;2.83;1.90;;;;;;;19.18;78.18;99304.53;6417194;23;20336;-79
2021/10/03 06:46:07;;;;;;;2.50;1.70;;;;;;;19.15;78.88;99299.47;6417474;23;20236;-80
2021/10/03 06:48:38;;;;;;;4.88;1.80;;;;;;;19.11;78.52;99297.25;6406719;23;20056;-80
2021/10/03 06:51:08;;;;;;;4.97;1.73;;;;;;;19.10;78.57;99307.00;6401332;23;20005;-82
2021/10/03 06:53:38;;;;;;;3.47;2.03;;;;;;;18.96;80.30;99307.38;6398289;23;19997;-80
2021/10/03 06:56:09;;;;;;;2.60;1.60;;;;;;;18.92;80.54;99307.81;6400219;23;20398;-80
2021/10/03 06:58:40;;;;;;;3.08;1.90;;;;;;;18.78;80.86;99316.16;6400185;23;20004;-79
2021/10/03 07:01:10;;;;;;;2.20;1.60;;;;;;;18.71;80.88;99312.38;6398867;23;20016;-78
2021/10/03 07:03:40;;;;;;;2.88;1.90;;;;;;;18.53;81.42;99307.88;6412729;23;20012;-80
2021/10/03 07:06:11;;;;;;;2.92;1.80;;;;;;;18.66;80.24;99311.13;6412696;23;20043;-79
2021/10/03 07:08:41;;;;;;;3.10;1.90;;;;;;;18.61;80.29;99308.03;6400418;23;20009;-80
2021/10/03 07:11:12;;;;;;;2.70;1.67;;;;;;;18.67;79.29;99316.25;6399939;23;20008;-79
2021/10/03 07:13:43;;;;;;;2.95;1.85;;;;;;;18.57;79.96;99317.22;6401077;23;20324;-79
2021/10/03 07:16:15;;;;;;;3.45;1.73;;;;;;;18.61;79.84;99323.91;6413072;23;20080;-78
2021/10/03 07:18:45;;;;;;;2.75;1.75;;;;;;;18.57;79.66;99330.44;6401035;23;20008;-80
2021/10/03 07:21:15;;;;;;;3.30;1.60;;;;;;;18.60;79.10;99330.16;6414042;23;20005;-80
2021/10/03 07:23:46;;;;;;;2.35;1.70;;;;;;;18.67;79.29;99333.97;6400962;23;20552;-78
2021/10/03 07:26:16;;;;;;;2.67;1.70;;;;;;;18.68;78.35;99331.16;6413825;23;20005;-77
2021/10/03 07:28:46;;;;;;;4.00;1.60;;;;;;;18.72;77.94;99342.34;6400794;23;20641;-77
2021/10/03 07:31:19;;;;;;;2.50;1.63;;;;;;;18.83;77.05;99338.63;6413733;23;20327;-77
2021/10/03 07:33:49;;;;;;;2.33;1.45;;;;;;;18.78;77.07;99335.50;6414081;23;20453;-80
2021/10/03 07:36:20;;;;;;;2.60;1.67;;;;;;;18.78;77.36;99335.50;6413444;23;20012;-79
2021/10/03 07:38:50;;;;;;;2.00;1.45;;;;;;;18.79;77.22;99339.84;6412694;23;20009;-79
2021/10/03 07:41:21;;;;;;;3.17;1.60;;;;;;;18.82;76.67;99338.72;6413453;23;20075;-79
2021/10/03 07:43:51;;;;;;;6.90;1.55;;;;;;;18.81;77.15;99350.31;6400156;23;20001;-78
2021/10/03 07:46:22;;;;;;;2.92;1.90;;;;;;;18.75;77.42;99343.72;6400532;23;20033;-81
2021/10/03 07:48:52;;;;;;;2.53;1.70;;;;;;;18.64;78.21;99347.44;6413924;23;20096;-81
2021/10/03 07:51:23;;;;;;;3.35;1.95;;;;;;;18.71;77.11;99367.13;6400212;23;20009;-81
2021/10/03 07:53:53;;;;;;;2.67;1.90;;;;;;;18.59;78.61;99362.91;6399904;23;20000;-79
2021/10/03 07:56:24;;;;;;;3.25;1.80;;;;;;;18.51;79.26;99366.22;6413325;23;20016;-80
2021/10/03 07:58:54;;;;;;;2.65;1.98;;;;;;;18.47;80.03;99363.97;6399760;23;20005;-80
2021/10/03 08:01:25;;;;;;;2.92;1.88;;;;;;;18.38;80.52;99360.31;6412528;23;20008;-80
2021/10/03 08:03:55;;;;;;;4.38;2.00;;;;;;;18.42;79.89;99356.44;6410608;23;20005;-78
2021/10/03 08:06:27;;;;;;;2.97;1.75;;;;;;;18.38;79.87;99362.13;6397503;23;20020;-79
2021/10/03 08:08:58;;;;;;;5.82;2.05;;;;;;;18.33;80.50;99356.41;6411162;23;20005;-79
2021/10/03 08:11:28;;;;;;;3.05;2.13;;;;;;;18.35;80.28;99359.75;6400689;23;20070;-80
2021/10/03 08:13:59;;;;;;;3.30;2.00;;;;;;;18.36;80.77;99361.44;6400559;23;19997;-80
2021/10/03 08:16:30;;;;;;;3.65;2.30;;;;;;;18.37;80.93;99360.47;6400875;23;20341;-79
2021/10/03 08:19:00;;;;;;;3.88;2.05;;;;;;;18.40;80.49;99344.31;6398994;23;20013;-78
2021/10/03 08:21:30;;;;;;;2.60;1.75;;;;;;;18.37;80.98;99357.81;6413501;23;20005;-79
2021/10/03 08:24:01;;;;;;;3.15;2.00;;;;;;;18.39;81.30;99351.44;6399167;23;20369;-79
2021/10/03 08:26:31;;;;;;;3.20;1.80;;;;;;;18.36;81.87;99350.84;6403171;23;20015;-80
2021/10/03 08:29:01;;;;;;;3.00;2.00;;;;;;;18.50;81.78;99363.72;6407277;23;20732;-80
2021/10/03 08:31:32;;;;;;;3.55;2.10;;;;;;;18.53;82.21;99358.16;6404910;23;20024;-79
2021/10/03 08:34:02;;;;;;;3.33;2.10;;;;;;;18.54;81.77;99363.28;6408391;23;20099;-80
2021/10/03 08:36:32;;;;;;;3.45;1.80;;;;;;;18.59;81.21;99358.47;6405911;23;20081;-80
2021/10/03 08:39:03;;;;;;;3.75;2.22;;;;;;;18.68;81.23;99356.81;6408531;23;20553;-79
2021/10/03 08:41:33;;;;;;;3.60;1.95;;;;;;;18.77;81.32;99364.78;6407152;23;20005;-80
2021/10/03 08:44:04;;;;;;;3.30;1.90;;;;;;;18.70;81.70;99365.47;6408286;23;20039;-79
2021/10/03 08:46:36;;;;;;;3.80;1.80;;;;;;;18.73;81.88;99363.38;6397550;23;20071;-78
2021/10/03 08:49:06;;;;;;;3.50;1.95;;;;;;;18.63;82.65;99361.66;6407669;23;20015;-79
2021/10/03 08:51:37;;;;;;;4.13;2.40;;;;;;;18.53;82.79;99369.56;6397619;23;20330;-81
2021/10/03 08:54:07;;;;;;;2.88;1.83;;;;;;;18.58;82.87;99350.63;6395377;23;20004;-81
2021/10/03 08:56:37;;;;;;;2.95;1.90;;;;;;;18.64;82.10;99376.56;6396542;23;20012;-81
2021/10/03 08:59:08;;;;;;;3.87;2.20;;;;;;;18.67;81.05;99360.44;6396714;23;20016;-80
2021/10/03 09:01:53;;;;;;;4.30;2.33;;;;;;;18.62;81.95;99352.91;6396801;23;20306;-80
2021/10/03 09:04:35;;;;;;;1.65;1.23;;;;;;;18.70;80.55;99353.03;6396335;23;20009;-79
2021/10/03 09:07:08;;;;;;;3.13;1.98;;;;;;;18.66;80.97;99356.94;6405987;23;20016;-80
2021/10/03 09:09:55;;;;;;;3.17;2.20;;;;;;;18.52;82.44;99357.31;6407531;23;20005;-79
2021/10/03 09:12:32;;;;;;;2.67;1.92;;;;;;;18.48;82.48;99360.38;6402910;23;20024;-78
2021/10/03 09:15:13;;;;;;;4.63;1.95;;;;;;;18.52;82.61;99352.00;6407426;23;20075;-81
2021/10/03 09:17:54;;;;;;;3.65;2.08;;;;;;;18.59;82.20;99357.59;6398903;23;20013;-78
2021/10/03 09:20:26;;;;;;;3.47;1.92;;;;;;;18.65;81.93;99362.38;6394130;23;20008;-80
2021/10/03 09:23:04;;;;;;;3.22;1.90;;;;;;;18.67;82.50;99365.72;6401986;23;20012;-80
2021/10/03 09:25:44;;;;;;;4.00;2.15;;;;;;;18.79;82.44;99371.59;6407636;23;20005;-80
2021/10/03 09:28:20;;;;;;;2.90;1.98;;;;;;;18.74;82.04;99360.59;6391169;23;20007;-79
2021/10/03 09:31:06;;;;;;;5.00;2.30;;;;;;;18.94;79.36;99361.47;6417545;23;20455;-79
2021/10/03 09:33:48;;;;;;;3.30;1.88;;;;;;;19.26;76.94;99360.28;6408389;23;20444;-78
2021/10/03 09:36:33;;;;;;;3.13;1.80;;;;;;;19.35;76.75;99354.19;6403497;23;20032;-79
2021/10/03 09:39:09;;;;;;;2.17;1.60;;;;;;;19.51;75.52;99358.91;6409163;23;20353;-78
2021/10/03 09:41:43;;;;;;;1.88;1.58;;;;;;;19.61;76.13;99354.47;6415544;23;19996;-79
2021/10/03 09:44:15;;;;;;;3.63;1.70;;;;;;;19.87;73.97;99371.44;6408019;23;20016;-79
2021/10/03 09:46:48;;;;;;;3.35;1.70;;;;;;;19.98;73.32;99365.97;6404161;23;20170;-78
2021/10/03 09:49:29;;;;;;;2.70;1.90;;;;;;;20.09;72.78;99361.38;6406893;23;20044;-79
2021/10/03 09:51:59;;;;;;;2.20;1.65;;;;;;;20.27;72.56;99354.34;6415897;23;20005;-78
2021/10/03 09:54:34;;;;;;;2.10;1.45;;;;;;;20.30;71.84;99359.34;6409349;23;20035;-78
2021/10/03 09:57:04;;;;;;;2.60;1.53;;;;;;;20.39;70.25;99349.69;6415348;23;20271;-79
2021/10/03 09:59:35;;;;;;;2.92;1.65;;;;;;;20.44;70.37;99350.94;6405313;23;20013;-79
2021/10/03 10:02:05;;;;;;;2.10;1.65;;;;;;;20.36;71.27;99364.09;6413439;23;20096;-79
2021/10/03 10:04:36;;;;;;;1.92;1.40;;;;;;;20.44;71.12;99355.41;6407571;23;20009;-78
2021/10/03 10:07:06;;;;;;;2.45;1.67;;;;;;;20.42;71.92;99355.53;6414770;23;20563;-79
2021/10/03 10:09:37;;;;;;;3.13;2.00;;;;;;;20.43;71.45;99346.59;6407099;23;20011;-79
2021/10/03 10:12:13;;;;;;;3.85;1.67;;;;;;;20.55;70.45;99329.50;6410372;23;20506;-78
2021/10/03 10:14:48;;;;;;;2.22;1.40;;;;;;;20.56;71.35;99333.84;6404710;23;20032;-79
2021/10/03 10:17:36;;;;;;;2.20;1.40;;;;;;;20.59;70.36;99332.69;6409468;23;20039;-78
2021/10/03 10:20:20;;;;;;;3.20;1.63;;;;;;;20.63;70.47;99329.59;6405223;23;20068;-79
2021/10/03 10:23:03;;;;;;;1.90;1.48;;;;;;;20.63;70.89;99339.41;6410228;23;20001;-79
2021/10/03 10:25:46;;;;;;;1.98;1.50;;;;;;;20.68;71.06;99345.91;6399470;23;20004;-79
2021/10/03 10:28:27;;;;;;;2.53;1.60;;;;;;;20.62;70.82;99346.50;6396720;23;20067;-78
2021/10/03 10:31:12;;;;;;;1.98;1.50;;;;;;;20.66;70.68;99347.06;6402314;23;20013;-79
2021/10/03 10:33:53;;;;;;;3.92;1.75;;;;;;;20.74;70.34;99334.72;6399727;23;20013;-78
2021/10/03 10:36:28;;;;;;;2.83;1.63;;;;;;;20.80;70.03;99344.72;6411899;23;20024;-79
2021/10/03 10:39:07;;;;;;;2.23;1.50;;;;;;;20.97;70.01;99349.28;6401494;23;20005;-79
2021/10/03 10:41:40;;;;;;;2.08;1.48;;;;;;;21.01;69.34;99347.97;6415029;23;20005;-79
2021/10/03 10:44:28;;;;;;;2.75;1.50;;;;;;;20.94;70.41;99352.25;6412873;23;20009;-78
2021/10/03 10:47:19;;;;;;;1.92;1.40;;;;;;;20.85;70.61;99353.97;6415362;23;20008;-78
2021/10/03 10:49:52;;;;;;;2.50;1.35;;;;;;;20.99;69.92;99357.94;6404628;23;20080;-78
2021/10/03 10:52:24;;;;;;;2.40;1.40;;;;;;;20.91;70.10;99348.03;6404829;23;20273;-80
2021/10/03 10:55:04;;;;;;;3.70;1.33;;;;;;;20.86;70.97;99347.66;6412611;23;20004;-79
2021/10/03 10:57:51;;;;;;;2.20;1.40;;;;;;;20.83;71.44;99349.75;6404432;23;20001;-78
2021/10/03 11:00:24;;;;;;;1.98;1.38;;;;;;;20.89;70.43;99352.69;6412911;23;20028;-79
2021/10/03 11:03:03;;;;;;;1.70;1.10;;;;;;;20.95;70.06;99349.44;6416875;23;20016;-79
2021/10/03 11:05:37;;;;;;;2.38;1.50;;;;;;;20.81;72.05;99359.69;6413734;23;20036;-79
2021/10/03 11:08:17;;;;;;;3.22;1.50;;;;;;;20.75;71.04;99350.47;6416199;23;20009;-79
2021/10/03 11:10:56;;;;;;;2.17;1.50;;;;;;;20.79;71.68;99357.19;6412148;23;20143;-79
2021/10/03 11:13:43;;;;;;;2.58;1.50;;;;;;;20.79;71.98;99349.22;6417696;23;19997;-80
2021/10/03 11:16:26;;;;;;;2.88;1.50;;;;;;;20.85;71.85;99345.16;6404496;23;20028;-79
2021/10/03 11:19:03;;;;;;;1.85;1.40;;;;;;;20.87;70.50;99348.50;6403643;23;20053;-79
2021/10/03 11:21:37;;;;;;;3.72;1.50;;;;;;;20.90;70.97;99348.22;6410105;23;20009;-79
2021/10/03 11:24:10;;;;;;;2.23;1.40;;;;;;;20.99;70.93;99352.63;6413026;23;20005;-79
2021/10/03 11:26:48;;;;;;;2.10;1.48;;;;;;;20.96;70.31;99358.22;6405730;23;20020;-78
2021/10/03 11:29:22;;;;;;;2.78;1.58;;;;;;;21.10;69.81;99355.06;6406719;23;20063;-78
2021/10/03 11:31:57;;;;;;;2.28;1.40;;;;;;;21.21;69.39;99353.03;6412171;23;20005;-79
2021/10/03 11:34:37;;;;;;;2.17;1.40;;;;;;;21.16;69.58;99359.78;6417373;23;20080;-79
2021/10/03 11:37:10;;;;;;;3.45;1.95;;;;;;;21.12;70.32;99363.72;6404841;23;20104;-79
2021/10/03 11:39:43;;;;;;;2.95;1.63;;;;;;;20.96;71.33;99363.53;6413610;23;20435;-79
2021/10/03 11:42:37;;;;;;;2.00;1.40;;;;;;;21.10;70.02;99355.88;6406707;23;20013;-79
2021/10/03 11:45:14;;;;;;;2.88;1.40;;;;;;;21.07;70.60;99356.19;6403751;23;20023;-78
2021/10/03 11:47:49;;;;;;;2.10;1.40;;;;;;;21.09;69.89;99353.41;6406690;23;20598;-79
2021/10/03 11:50:26;;;;;;;;;;;;;;;21.20;69.98;99350.53;6411400;23;20005;-78
2021/10/03 11:53:16;;;;;;;1.88;1.27;;;;;;;21.31;69.22;99347.63;6404683;23;19908;-79
2021/10/03 11:55:49;;;;;;;2.58;1.42;;;;;;;21.29;69.67;99344.31;6401533;23;20005;-79
2021/10/03 11:58:27;;;;;;;2.28;1.40;;;;;;;21.51;67.38;99338.50;6404028;23;20350;-78
2021/10/03 12:01:00;;;;;;;2.97;1.58;;;;;;;21.63;67.59;99354.13;6404631;23;20001;-79
2021/10/03 12:03:33;;;;;;;2.28;1.30;;;;;;;21.50;68.75;99352.78;6400599;23;20139;-77